createdAt,value
2019-02-02T00:02:16.614Z,96124.62
2019-02-02T00:04:50.060Z,96121.46
2019-02-02T00:07:27.411Z,96117.52
2019-02-02T00:09:58.663Z,96125.02
2019-02-02T00:12:32.307Z,96128.31
2019-02-02T00:15:06.990Z,96121.58
2019-02-02T00:17:40.119Z,96130.55
2019-02-02T00:20:14.111Z,96130.55
2019-02-02T00:22:48.131Z,96128.28
2019-02-02T00:25:19.444Z,96137.41
2019-02-02T00:27:53.495Z,96138.33
2019-02-02T00:30:25.295Z,96144.45
2019-02-02T00:32:58.191Z,96137.62
2019-02-02T00:35:32.196Z,96140.89
2019-02-02T00:38:05.425Z,96140.00
2019-02-02T00:40:38.099Z,96136.80
2019-02-02T00:43:10.269Z,96144.28
2019-02-02T00:45:42.229Z,96146.39
2019-02-02T00:48:13.502Z,96138.82
2019-02-02T00:50:47.191Z,96142.77
2019-02-02T00:53:21.136Z,96139.56
2019-02-02T00:55:55.420Z,96137.52
2019-02-02T00:58:29.500Z,96137.45
2019-02-02T01:01:03.323Z,96135.73
2019-02-02T01:03:38.897Z,96129.94
2019-02-02T01:06:11.480Z,96142.95
2019-02-02T01:08:45.416Z,96126.89
2019-02-02T01:11:19.392Z,96131.13
2019-02-02T01:13:53.209Z,96139.61
2019-02-02T01:16:26.100Z,96133.16
2019-02-02T01:18:58.425Z,96147.84
2019-02-02T01:21:32.447Z,96138.64
2019-02-02T01:24:05.855Z,96136.58
2019-02-02T01:26:39.408Z,96136.81
2019-02-02T01:29:10.794Z,96134.88
2019-02-02T01:31:42.077Z,96132.73
2019-02-02T01:34:13.434Z,96129.52
2019-02-02T01:36:46.683Z,96132.67
2019-02-02T01:39:17.929Z,96134.77
2019-02-02T01:41:51.435Z,96119.66
2019-02-02T01:44:25.490Z,96127.18
2019-02-02T01:46:59.461Z,96117.77
2019-02-02T01:49:32.866Z,96124.20
2019-02-02T01:52:04.454Z,96106.22
2019-02-02T01:54:38.459Z,96112.67
2019-02-02T01:57:12.561Z,96114.23
2019-02-02T01:59:45.555Z,96118.20
2019-02-02T02:02:17.566Z,96117.34
2019-02-02T02:04:50.582Z,96117.58
2019-02-02T02:07:24.591Z,96113.09
2019-02-02T02:09:58.580Z,96108.66
2019-02-02T02:12:29.976Z,96115.86
2019-02-02T02:15:01.617Z,96107.75
2019-02-02T02:17:34.500Z,96107.11
2019-02-02T02:20:09.861Z,96113.84
2019-02-02T02:22:43.760Z,96129.11
2019-02-02T02:25:17.556Z,96121.06
2019-02-02T02:27:49.728Z,96125.58
2019-02-02T02:30:24.148Z,96120.22
2019-02-02T02:32:57.861Z,96122.39
2019-02-02T02:35:31.739Z,96117.06
2019-02-02T02:38:05.769Z,96119.49
2019-02-02T02:40:37.686Z,96114.98
2019-02-02T02:43:10.660Z,96121.39
2019-02-02T02:45:43.624Z,96124.80
2019-02-02T02:48:15.848Z,96133.88
2019-02-02T02:50:49.813Z,96143.38
2019-02-02T02:53:23.758Z,96150.77
2019-02-02T02:55:56.797Z,96168.02
2019-02-02T02:58:40.496Z,96186.88
2019-02-02T03:01:01.945Z,96204.87
2019-02-02T03:03:34.779Z,96224.90
2019-02-02T03:06:06.842Z,96231.16
2019-02-02T03:08:40.767Z,96243.47
2019-02-02T03:11:16.405Z,96245.55
2019-02-02T03:13:48.903Z,96245.03
2019-02-02T03:16:20.189Z,96252.91
2019-02-02T03:18:53.760Z,96257.55
2019-02-02T03:21:25.374Z,96260.81
2019-02-02T03:23:58.821Z,96260.63
2019-02-02T03:26:31.910Z,96260.42
2019-02-02T03:29:05.895Z,96265.20
2019-02-02T03:31:41.572Z,96281.87
2019-02-02T03:34:13.967Z,96292.16
2019-02-02T03:36:45.796Z,96283.20
2019-02-02T03:39:18.969Z,96287.95
2019-02-02T03:41:53.011Z,96287.70
2019-02-02T03:44:25.521Z,96284.80
2019-02-02T03:46:58.008Z,96291.15
2019-02-02T03:49:33.511Z,96300.89
2019-02-02T03:52:05.961Z,96296.69
2019-02-02T03:54:40.059Z,96297.75
2019-02-02T03:57:13.060Z,96288.77
2019-02-02T03:59:44.921Z,96295.65
2019-02-02T04:02:18.305Z,96307.25
2019-02-02T04:04:52.193Z,96307.78
2019-02-02T04:07:24.064Z,96304.87
2019-02-02T04:09:57.082Z,96311.98
2019-02-02T04:12:28.453Z,96308.83
2019-02-02T04:14:59.708Z,96315.16
2019-02-02T04:17:33.155Z,96314.11
2019-02-02T04:20:10.036Z,96322.52
2019-02-02T04:22:44.034Z,96327.26
2019-02-02T04:25:20.422Z,96330.94
2019-02-02T04:27:52.206Z,96328.81
2019-02-02T04:30:26.585Z,96349.91
2019-02-02T04:33:00.180Z,96353.06
2019-02-02T04:35:32.305Z,96345.67
2019-02-02T04:38:06.957Z,96348.30
2019-02-02T04:40:39.169Z,96341.75
2019-02-02T04:43:14.989Z,96329.84
2019-02-02T04:45:47.263Z,96322.20
2019-02-02T04:48:20.253Z,96331.42
2019-02-02T04:50:54.277Z,96338.01
2019-02-02T04:53:25.618Z,96344.03
2019-02-02T04:55:57.266Z,96351.13
2019-02-02T04:58:29.478Z,96361.89
2019-02-02T05:01:01.601Z,96359.75
2019-02-02T05:03:34.455Z,96362.88
2019-02-02T05:06:07.938Z,96371.27
2019-02-02T05:08:40.363Z,96383.63
2019-02-02T05:11:15.991Z,96391.22
2019-02-02T05:13:48.375Z,96384.59
2019-02-02T05:16:22.170Z,96376.38
2019-02-02T05:18:53.449Z,96361.36
2019-02-02T05:21:25.792Z,96360.27
2019-02-02T05:23:58.287Z,96354.19
2019-02-02T05:26:31.776Z,96369.20
2019-02-02T05:29:04.576Z,96359.71
2019-02-02T05:31:38.594Z,96375.74
2019-02-02T05:34:10.344Z,96375.23
2019-02-02T05:36:43.429Z,96374.19
2019-02-02T05:39:17.479Z,96371.27
2019-02-02T05:41:52.416Z,96368.56
2019-02-02T05:44:25.737Z,96383.53
2019-02-02T05:46:59.456Z,96383.02
2019-02-02T05:49:32.647Z,96398.25
2019-02-02T05:52:04.616Z,96403.02
2019-02-02T05:54:38.244Z,96399.09
2019-02-02T05:57:09.587Z,96398.59
2019-02-02T05:59:52.309Z,96394.66
2019-02-02T06:02:16.565Z,96394.61
2019-02-02T06:04:52.123Z,96380.89
2019-02-02T06:07:24.689Z,96370.40
2019-02-02T06:09:58.595Z,96366.17
2019-02-02T06:12:30.048Z,96363.80
2019-02-02T06:15:01.405Z,96346.40
2019-02-02T06:17:34.635Z,96355.58
2019-02-02T06:20:11.372Z,96361.61
2019-02-02T06:22:45.608Z,96353.45
2019-02-02T06:25:19.748Z,96349.78
2019-02-02T06:27:53.736Z,96357.69
2019-02-02T06:30:25.960Z,96348.00
2019-02-02T06:32:58.670Z,96351.69
2019-02-02T06:35:31.859Z,96360.42
2019-02-02T06:38:05.833Z,96359.16
2019-02-02T06:40:37.851Z,96357.86
2019-02-02T06:43:10.927Z,96373.67
2019-02-02T06:45:42.230Z,96371.58
2019-02-02T06:48:13.483Z,96355.51
2019-02-02T06:50:46.902Z,96343.13
2019-02-02T06:53:22.541Z,96341.30
2019-02-02T06:55:55.834Z,96352.09
2019-02-02T06:58:28.899Z,96358.92
2019-02-02T07:01:00.372Z,96363.67
2019-02-02T07:03:31.942Z,96363.41
2019-02-02T07:06:04.852Z,96361.07
2019-02-02T07:08:37.708Z,96360.03
2019-02-02T07:11:09.971Z,96361.36
2019-02-02T07:13:43.902Z,96373.25
2019-02-02T07:16:17.941Z,96367.24
2019-02-02T07:18:51.975Z,96356.95
2019-02-02T07:21:25.891Z,96338.02
2019-02-02T07:23:59.945Z,96337.28
2019-02-02T07:26:31.887Z,96348.13
2019-02-02T07:29:04.300Z,96354.23
2019-02-02T07:31:38.149Z,96356.16
2019-02-02T07:34:12.028Z,96355.67
2019-02-02T07:36:46.288Z,96350.41
2019-02-02T07:39:17.566Z,96355.45
2019-02-02T07:41:51.033Z,96362.33
2019-02-02T07:44:25.064Z,96369.45
2019-02-02T07:46:59.085Z,96381.34
2019-02-02T07:49:33.790Z,96389.25
2019-02-02T07:52:07.134Z,96371.07
2019-02-02T07:54:38.382Z,96363.16
2019-02-02T07:57:13.112Z,96361.31
2019-02-02T07:59:47.491Z,96387.19
2019-02-02T08:02:20.167Z,96391.70
2019-02-02T08:04:55.399Z,96383.27
2019-02-02T08:07:26.920Z,96377.47
2019-02-02T08:09:58.885Z,96367.42
2019-02-02T08:12:30.275Z,96373.26
2019-02-02T08:15:04.964Z,96373.25
2019-02-02T08:17:37.356Z,96371.13
2019-02-02T08:20:12.065Z,96362.41
2019-02-02T08:22:45.277Z,96372.98
2019-02-02T08:25:19.590Z,96367.45
2019-02-02T08:27:53.221Z,96369.80
2019-02-02T08:30:28.148Z,96377.47
2019-02-02T08:33:01.461Z,96374.56
2019-02-02T08:35:37.015Z,96374.02
2019-02-02T08:38:09.143Z,96376.65
2019-02-02T08:40:43.310Z,96383.20
2019-02-02T08:43:17.387Z,96383.20
2019-02-02T08:45:51.413Z,96375.47
2019-02-02T08:48:24.469Z,96371.98
2019-02-02T08:50:58.388Z,96378.55
2019-02-02T08:53:29.937Z,96384.83
2019-02-02T08:56:03.510Z,96377.11
2019-02-02T08:58:35.427Z,96396.90
2019-02-02T09:01:08.667Z,96388.66
2019-02-02T09:03:44.090Z,96412.41
2019-02-02T09:06:16.322Z,96408.45
2019-02-02T09:08:50.467Z,96410.05
2019-02-02T09:11:21.794Z,96406.49
2019-02-02T09:13:55.107Z,96403.01
2019-02-02T09:16:26.440Z,96417.11
2019-02-02T09:19:01.972Z,96411.73
2019-02-02T09:21:35.562Z,96433.45
2019-02-02T09:24:08.490Z,96430.34
2019-02-02T09:26:40.402Z,96421.42
2019-02-02T09:29:12.672Z,96451.41
2019-02-02T09:31:44.249Z,96441.63
2019-02-02T09:34:15.546Z,96407.48
2019-02-02T09:36:51.236Z,96426.67
2019-02-02T09:39:23.565Z,96440.28
2019-02-02T09:41:57.510Z,96446.55
2019-02-02T09:44:29.680Z,96446.55
2019-02-02T09:47:01.551Z,96439.98
2019-02-02T09:49:35.713Z,96444.93
2019-02-02T09:52:07.299Z,96446.11
2019-02-02T09:54:38.586Z,96447.66
2019-02-02T09:57:11.537Z,96462.05
2019-02-02T09:59:43.814Z,96471.55
2019-02-02T10:02:17.728Z,96471.01
2019-02-02T10:04:51.636Z,96466.86
2019-02-02T10:07:25.777Z,96475.36
2019-02-02T10:09:59.422Z,96449.77
2019-02-02T10:12:31.795Z,96449.23
2019-02-02T10:15:05.934Z,96464.04
2019-02-02T10:17:37.708Z,96447.56
2019-02-02T10:20:18.150Z,96465.94
2019-02-02T10:22:49.719Z,96482.25
2019-02-02T10:25:24.760Z,96490.62
2019-02-02T10:27:56.814Z,96502.30
2019-02-02T10:30:31.937Z,96501.86
2019-02-02T10:33:06.578Z,96497.99
2019-02-02T10:35:39.015Z,96515.53
2019-02-02T10:38:12.883Z,96530.40
2019-02-02T10:40:46.916Z,96543.85
2019-02-02T10:43:20.954Z,96553.45
2019-02-02T10:45:54.769Z,96545.45
2019-02-02T10:48:27.006Z,96541.81
2019-02-02T10:50:59.683Z,96562.56
2019-02-02T10:53:30.963Z,96573.46
2019-02-02T10:56:05.056Z,96577.08
2019-02-02T10:58:38.945Z,96583.72
2019-02-02T11:01:12.791Z,96576.30
2019-02-02T11:03:46.870Z,96573.20
2019-02-02T11:06:20.503Z,96567.73
2019-02-02T11:08:51.842Z,96579.34
2019-02-02T11:11:24.934Z,96580.20
2019-02-02T11:13:59.113Z,96571.75
2019-02-02T11:16:33.069Z,96558.66
2019-02-02T11:19:08.739Z,96562.40
2019-02-02T11:21:41.590Z,96574.20
2019-02-02T11:24:15.247Z,96598.77
2019-02-02T11:26:49.228Z,96597.84
2019-02-02T11:29:21.934Z,96595.25
2019-02-02T11:32:02.581Z,96609.77
2019-02-02T11:34:27.122Z,96605.32
2019-02-02T11:37:00.887Z,96611.23
2019-02-02T11:39:33.222Z,96610.38
2019-02-02T11:42:07.277Z,96624.06
2019-02-02T11:44:41.039Z,96630.08
2019-02-02T11:47:14.139Z,96623.35
2019-02-02T11:49:48.250Z,96633.84
2019-02-02T11:52:23.362Z,96639.52
2019-02-02T11:54:56.166Z,96635.59
2019-02-02T11:57:29.169Z,96645.17
2019-02-02T12:00:01.232Z,96661.66
2019-02-02T12:02:32.639Z,96662.66
2019-02-02T12:05:07.176Z,96658.90
2019-02-02T12:07:40.241Z,96675.63
2019-02-02T12:10:16.796Z,96665.48
2019-02-02T12:12:48.485Z,96668.44
2019-02-02T12:15:22.292Z,96675.73
2019-02-02T12:17:53.706Z,96676.39
2019-02-02T12:20:26.600Z,96676.33
2019-02-02T12:22:58.648Z,96672.32
2019-02-02T12:25:32.470Z,96657.83
2019-02-02T12:28:05.542Z,96671.38
2019-02-02T12:30:37.305Z,96682.95
2019-02-02T12:33:10.507Z,96687.64
2019-02-02T12:35:44.562Z,96677.64
2019-02-02T12:38:15.878Z,96681.97
2019-02-02T12:40:49.431Z,96667.02
2019-02-02T12:43:23.451Z,96678.16
2019-02-02T12:45:57.339Z,96677.91
2019-02-02T12:48:28.646Z,96671.34
2019-02-02T12:51:02.502Z,96687.70
2019-02-02T12:53:36.492Z,96690.39
2019-02-02T12:56:11.997Z,96680.39
2019-02-02T12:58:44.402Z,96682.98
2019-02-02T13:01:18.405Z,96685.56
2019-02-02T13:04:00.940Z,96692.68
2019-02-02T13:06:23.631Z,96698.61
2019-02-02T13:08:54.882Z,96692.28
2019-02-02T13:11:26.293Z,96697.45
2019-02-02T13:13:59.583Z,96715.02
2019-02-02T13:16:32.572Z,96720.00
2019-02-02T13:19:05.315Z,96721.20
2019-02-02T13:21:38.546Z,96727.77
2019-02-02T13:24:11.623Z,96730.97
2019-02-02T13:26:42.933Z,96724.41
2019-02-02T13:29:14.311Z,96727.20
2019-02-02T13:31:47.631Z,96742.77
2019-02-02T13:34:23.239Z,96740.69
2019-02-02T13:36:55.848Z,96740.99
2019-02-02T13:39:27.105Z,96727.36
2019-02-02T13:42:00.756Z,96731.27
2019-02-02T13:44:32.718Z,96732.44
2019-02-02T13:47:05.804Z,96748.99
2019-02-02T13:49:38.715Z,96751.78
2019-02-02T13:52:10.711Z,96747.86
2019-02-02T13:54:45.750Z,96750.27
2019-02-02T13:57:18.863Z,96740.30
2019-02-02T13:59:56.127Z,96744.91
2019-02-02T14:02:29.890Z,96753.73
2019-02-02T14:05:04.607Z,96755.67
2019-02-02T14:07:37.806Z,96769.33
2019-02-02T14:10:18.899Z,96777.89
2019-02-02T14:12:51.851Z,96775.08
2019-02-02T14:15:27.350Z,96787.06
2019-02-02T14:17:59.825Z,96796.22
2019-02-02T14:20:31.822Z,96798.95
2019-02-02T14:23:04.789Z,96808.73
2019-02-02T14:25:36.497Z,96817.14
2019-02-02T14:28:09.873Z,96819.41
2019-02-02T14:30:43.962Z,96824.73
2019-02-02T14:33:15.781Z,96831.44
2019-02-02T14:35:48.942Z,96844.61
2019-02-02T14:38:23.053Z,96857.80
2019-02-02T14:40:54.943Z,96861.09
2019-02-02T14:43:26.570Z,96866.97
2019-02-02T14:45:57.947Z,96864.67
2019-02-02T14:48:29.696Z,96866.86
2019-02-02T14:51:00.956Z,96872.80
2019-02-02T14:53:35.730Z,96880.83
2019-02-02T14:56:08.875Z,96888.87
2019-02-02T14:58:40.133Z,96888.67
2019-02-02T15:01:13.047Z,96896.95
2019-02-02T15:03:45.989Z,96902.02
2019-02-02T15:06:17.940Z,96901.25
2019-02-02T15:08:52.073Z,96898.34
2019-02-02T15:11:23.326Z,96909.00
2019-02-02T15:13:57.007Z,96911.11
2019-02-02T15:16:30.178Z,96917.47
2019-02-02T15:19:02.090Z,96938.39
2019-02-02T15:21:36.159Z,96939.16
2019-02-02T15:24:09.004Z,96943.33
2019-02-02T15:26:41.147Z,96954.43
2019-02-02T15:29:15.218Z,96968.98
2019-02-02T15:31:46.639Z,96962.34
2019-02-02T15:34:20.371Z,96967.86
2019-02-02T15:36:54.235Z,96981.08
2019-02-02T15:39:26.639Z,96991.13
2019-02-02T15:41:59.185Z,96988.17
2019-02-02T15:44:33.075Z,96984.13
2019-02-02T15:47:04.514Z,96989.39
2019-02-02T15:49:36.355Z,96988.80
2019-02-02T15:52:08.836Z,96991.70
2019-02-02T15:54:40.141Z,96994.86
2019-02-02T15:57:13.346Z,96997.48
2019-02-02T15:59:48.889Z,97001.09
2019-02-02T16:02:21.239Z,97003.88
2019-02-02T16:04:55.221Z,97019.09
2019-02-02T16:07:27.056Z,97021.39
2019-02-02T16:10:00.563Z,97018.41
2019-02-02T16:12:31.870Z,97016.50
2019-02-02T16:15:06.593Z,97018.53
2019-02-02T16:17:39.200Z,97018.53
2019-02-02T16:20:19.192Z,97014.03
2019-02-02T16:22:50.452Z,97010.34
2019-02-02T16:25:21.709Z,97002.47
2019-02-02T16:27:55.275Z,96999.58
2019-02-02T16:30:28.559Z,96999.38
2019-02-02T16:33:00.645Z,97004.67
2019-02-02T16:35:33.417Z,97001.80
2019-02-02T16:38:06.110Z,96997.25
2019-02-02T16:40:41.101Z,97003.27
2019-02-02T16:43:12.609Z,97007.14
2019-02-02T16:45:44.196Z,96990.54
2019-02-02T16:48:15.465Z,97021.05
2019-02-02T16:50:48.474Z,97024.27
2019-02-02T16:53:21.964Z,97016.86
2019-02-02T16:55:55.502Z,97027.47
2019-02-02T16:58:26.931Z,97023.53
2019-02-02T17:00:59.490Z,97025.42
2019-02-02T17:03:33.417Z,97027.84
2019-02-02T17:06:07.149Z,97032.61
2019-02-02T17:08:40.679Z,97029.97
2019-02-02T17:11:14.642Z,97019.92
2019-02-02T17:13:48.639Z,97010.63
2019-02-02T17:16:19.906Z,97007.21
2019-02-02T17:18:53.735Z,97022.98
2019-02-02T17:21:28.969Z,97022.98
2019-02-02T17:23:59.022Z,97024.59
2019-02-02T17:26:31.902Z,97025.62
2019-02-02T17:29:03.680Z,97037.49
2019-02-02T17:31:37.559Z,97036.95
2019-02-02T17:34:08.830Z,97043.55
2019-02-02T17:36:42.629Z,97037.75
2019-02-02T17:39:16.531Z,97031.34
2019-02-02T17:41:47.773Z,97038.70
2019-02-02T17:44:20.577Z,97037.06
2019-02-02T17:46:52.270Z,97023.31
2019-02-02T17:49:23.533Z,97026.73
2019-02-02T17:51:54.877Z,97045.94
2019-02-02T17:54:26.682Z,97047.23
2019-02-02T17:56:58.656Z,97038.28
2019-02-02T17:59:30.813Z,97031.66
2019-02-02T18:02:03.725Z,97019.66
2019-02-02T18:04:39.853Z,97010.89
2019-02-02T18:07:12.884Z,97007.76
2019-02-02T18:09:46.869Z,96840.04
2019-02-02T18:12:18.203Z,97026.67
2019-02-02T18:14:50.778Z,97039.33
2019-02-02T18:17:24.795Z,97039.33
2019-02-02T18:19:58.905Z,97057.80
2019-02-02T18:22:34.454Z,97064.69
2019-02-02T18:25:08.635Z,97066.01
2019-02-02T18:27:40.959Z,97062.53
2019-02-02T18:30:18.583Z,97059.84
2019-02-02T18:32:52.018Z,97063.67
2019-02-02T18:35:23.453Z,97051.71
2019-02-02T18:37:56.894Z,97051.71
2019-02-02T18:40:28.155Z,97044.28
2019-02-02T18:43:02.231Z,97043.22
2019-02-02T18:45:36.144Z,97053.00
2019-02-02T18:48:11.674Z,97056.47
2019-02-02T18:50:43.985Z,97046.98
2019-02-02T18:53:16.996Z,97041.64
2019-02-02T18:56:12.341Z,97054.83
2019-02-02T18:58:46.861Z,97062.75
2019-02-02T19:01:19.984Z,97077.27
2019-02-02T19:03:51.599Z,97089.16
2019-02-02T19:06:22.876Z,97099.94
2019-02-02T19:08:56.077Z,97109.69
2019-02-02T19:11:27.351Z,97116.00
2019-02-02T19:14:01.026Z,97119.95
2019-02-02T19:16:33.101Z,97114.31
2019-02-02T19:19:06.422Z,97114.44
2019-02-02T19:21:40.192Z,97098.28
2019-02-02T19:24:14.102Z,97098.21
2019-02-02T19:26:45.369Z,97091.81
2019-02-02T19:29:19.341Z,97083.02
2019-02-02T19:31:53.213Z,97085.91
2019-02-02T19:34:26.834Z,97075.63
2019-02-02T19:36:58.285Z,97072.25
2019-02-02T19:39:30.313Z,97075.77
2019-02-02T19:42:03.246Z,97091.33
2019-02-02T19:44:36.190Z,97085.87
2019-02-02T19:47:15.800Z,97086.41
2019-02-02T19:49:43.945Z,97091.21
2019-02-02T19:52:16.355Z,97098.64
2019-02-02T19:54:49.373Z,97104.18
2019-02-02T19:57:23.263Z,97101.28
2019-02-02T19:59:55.433Z,97088.58
2019-02-02T20:02:27.007Z,97086.34
2019-02-02T20:04:59.453Z,97083.38
2019-02-02T20:07:30.837Z,97080.90
2019-02-02T20:10:05.341Z,97068.19
2019-02-02T20:12:38.479Z,97075.63
2019-02-02T20:15:16.000Z,97077.53
2019-02-02T20:17:47.540Z,97076.50
2019-02-02T20:20:21.979Z,97066.98
2019-02-02T20:22:54.661Z,97069.03
2019-02-02T20:25:27.091Z,97082.47
2019-02-02T20:27:59.466Z,97098.80
2019-02-02T20:30:31.638Z,97091.19
2019-02-02T20:33:04.936Z,97091.66
2019-02-02T20:35:42.016Z,97089.03
2019-02-02T20:38:12.301Z,97093.02
2019-02-02T20:40:49.263Z,97078.45
2019-02-02T20:43:22.555Z,97077.64
2019-02-02T20:45:56.692Z,97074.45
2019-02-02T20:48:30.521Z,97077.28
2019-02-02T20:51:02.484Z,97085.19
2019-02-02T20:53:35.663Z,97077.09
2019-02-02T20:56:09.523Z,97058.83
2019-02-02T20:58:40.836Z,97053.95
2019-02-02T21:01:14.748Z,97051.32
2019-02-02T21:03:48.692Z,97055.02
2019-02-02T21:06:21.790Z,97055.83
2019-02-02T21:08:53.437Z,97053.73
2019-02-02T21:11:24.853Z,97054.80
2019-02-02T21:14:00.368Z,97060.33
2019-02-02T21:16:33.763Z,97060.62
2019-02-02T21:19:06.733Z,97065.41
2019-02-02T21:21:39.601Z,97059.34
2019-02-02T21:24:13.700Z,97052.71
2019-02-02T21:26:45.347Z,97056.08
2019-02-02T21:29:19.960Z,97047.08
2019-02-02T21:31:53.712Z,97047.37
2019-02-02T21:34:26.950Z,97045.02
2019-02-02T21:37:01.024Z,97039.75
2019-02-02T21:39:33.746Z,97048.97
2019-02-02T21:42:05.863Z,97049.23
2019-02-02T21:44:43.358Z,97048.97
2019-02-02T21:47:13.769Z,97039.94
2019-02-02T21:49:49.322Z,97038.33
2019-02-02T21:52:21.807Z,97037.27
2019-02-02T21:54:55.688Z,97032.03
2019-02-02T21:57:27.045Z,97033.94
2019-02-02T22:00:00.778Z,97030.52
2019-02-02T22:02:32.495Z,97039.78
2019-02-02T22:05:07.089Z,97037.15
2019-02-02T22:07:40.043Z,97045.90
2019-02-02T22:10:12.969Z,97059.11
2019-02-02T22:12:46.855Z,97075.48
2019-02-02T22:15:20.540Z,97090.78
2019-02-02T22:17:51.991Z,97099.31
2019-02-02T22:20:26.193Z,97095.58
2019-02-02T22:23:00.009Z,97094.81
2019-02-02T22:25:34.009Z,97092.03
2019-02-02T22:28:05.779Z,97077.28
2019-02-02T22:30:39.201Z,97074.16
2019-02-02T22:33:13.133Z,97076.84
2019-02-02T22:35:47.005Z,97077.67
2019-02-02T22:38:20.989Z,97076.65
2019-02-02T22:40:54.984Z,97072.73
2019-02-02T22:43:27.117Z,97069.03
2019-02-02T22:45:59.030Z,97078.27
2019-02-02T22:48:30.586Z,97074.05
2019-02-02T22:51:01.919Z,97072.44
2019-02-02T22:53:36.049Z,97071.59
2019-02-02T22:56:11.870Z,97073.69
2019-02-02T22:58:43.133Z,97075.52
2019-02-02T23:01:39.161Z,97080.53
2019-02-02T23:04:56.996Z,97088.22
2019-02-02T23:07:53.548Z,97083.50
2019-02-02T23:10:58.580Z,97084.02
2019-02-02T23:14:06.037Z,97089.58
2019-02-02T23:16:39.081Z,97099.36
2019-02-02T23:19:12.812Z,97095.91
2019-02-02T23:21:46.429Z,97070.09
2019-02-02T23:24:20.259Z,97102.95
2019-02-02T23:26:54.306Z,97095.29
2019-02-02T23:29:27.262Z,97095.00
2019-02-02T23:31:59.155Z,97100.81
2019-02-02T23:34:33.793Z,97083.39
2019-02-02T23:37:07.654Z,97085.00
2019-02-02T23:39:41.280Z,97079.73
2019-02-02T23:42:16.899Z,97075.19
2019-02-02T23:44:49.500Z,97074.13
2019-02-02T23:47:21.242Z,97075.44
2019-02-02T23:49:54.305Z,97078.08
2019-02-02T23:52:25.582Z,97084.41
2019-02-02T23:54:59.381Z,97082.30
2019-02-02T23:57:34.998Z,97072.04
